Time;durP1;ratioP1;P1;durP2;ratioP2;P2;SDS_P1;SDS_P2;PMS_P1;PMS_P2;Temp;Humidity;BMP_temperature;BMP_pressure;BME280_temperature;BME280_humidity;BME280_pressure;Samples;Min_cycle;Max_cycle;Signal;HPM_P1;HPM_P2
2021/09/19 00:00:38;;;;;;;1.63;1.53;;;;;;;22.53;92.28;97308.69;4964069;28;20322;-66
2021/09/19 00:03:04;;;;;;;2.00;1.90;;;;;;;22.53;92.33;97295.91;4955047;28;20212;-67
2021/09/19 00:05:31;;;;;;;1.90;1.80;;;;;;;22.53;92.27;97301.84;4969057;28;20698;-67
2021/09/19 00:07:58;;;;;;;1.77;1.67;;;;;;;22.53;92.53;97301.84;4967501;28;20323;-66
2021/09/19 00:10:24;;;;;;;1.93;1.83;;;;;;;22.53;92.34;97290.78;4960545;28;20228;-66
2021/09/19 00:12:51;;;;;;;2.00;1.90;;;;;;;22.53;92.71;97298.47;4967762;28;20239;-66
2021/09/19 00:15:18;;;;;;;1.90;1.80;;;;;;;22.52;92.26;97296.69;4969059;28;20286;-67
2021/09/19 00:17:45;;;;;;;1.87;1.77;;;;;;;22.52;92.23;97291.59;4968310;28;20673;-66
2021/09/19 00:20:11;;;;;;;1.77;1.67;;;;;;;22.52;92.31;97296.69;4968784;28;20701;-66
2021/09/19 00:22:38;;;;;;;2.00;1.90;;;;;;;22.52;92.40;97296.69;4963701;28;20477;-66
2021/09/19 00:25:05;;;;;;;1.90;1.80;;;;;;;22.51;92.23;97303.53;4957979;28;20224;-67
2021/09/19 00:27:32;;;;;;;2.00;1.90;;;;;;;22.52;92.53;97296.69;4959929;28;20295;-67
2021/09/19 00:29:59;;;;;;;1.90;1.80;;;;;;;22.52;92.23;97301.81;4968367;28;20214;-66
2021/09/19 00:32:26;;;;;;;2.00;1.90;;;;;;;22.52;92.38;97297.56;4959097;28;20311;-66
2021/09/19 00:34:52;;;;;;;1.97;1.87;;;;;;;22.50;92.27;97299.22;4967715;28;20290;-66
2021/09/19 00:37:19;;;;;;;1.70;1.60;;;;;;;22.51;92.28;97303.53;4957943;28;20239;-68
2021/09/19 00:39:45;;;;;;;1.90;1.80;;;;;;;22.51;92.28;97300.97;4961959;28;20250;-67
2021/09/19 00:42:12;;;;;;;2.00;1.90;;;;;;;22.51;92.36;97298.41;4964523;28;20314;-67
2021/09/19 00:44:39;;;;;;;1.80;1.70;;;;;;;22.52;92.23;97301.81;4963065;28;20405;-66
2021/09/19 00:47:05;;;;;;;2.23;2.03;;;;;;;22.52;92.30;97305.25;4960816;28;20336;-67
2021/09/19 00:49:32;;;;;;;1.90;1.80;;;;;;;22.52;92.28;97304.38;4958383;28;20248;-68
2021/09/19 00:51:58;;;;;;;2.10;2.00;;;;;;;22.53;92.22;97303.56;4961726;28;20311;-67
2021/09/19 00:54:25;;;;;;;1.90;1.80;;;;;;;22.52;92.20;97302.69;4964348;28;20231;-66
2021/09/19 00:56:54;;;;;;;2.00;1.90;;;;;;;22.52;92.06;97292.47;4961742;28;20232;-66
2021/09/19 00:59:21;;;;;;;1.97;1.87;;;;;;;22.53;92.19;97288.22;4963894;28;20207;-66
2021/09/19 01:01:51;;;;;;;1.80;1.70;;;;;;;22.51;92.26;97288.19;4962183;28;20719;-66
2021/09/19 01:04:19;;;;;;;1.90;1.80;;;;;;;22.52;92.18;97289.91;4955222;28;20723;-66
2021/09/19 01:06:45;;;;;;;1.87;1.77;;;;;;;22.52;92.27;97292.47;4965755;28;20223;-66
2021/09/19 01:09:12;;;;;;;1.70;1.60;;;;;;;22.53;92.16;97295.91;4967420;28;20662;-66
2021/09/19 01:11:39;;;;;;;1.90;1.80;;;;;;;22.35;92.20;97264.72;4964558;28;20728;-67
2021/09/19 01:14:06;;;;;;;1.77;1.67;;;;;;;22.52;92.06;97279.66;4961073;28;20630;-67
2021/09/19 01:16:32;;;;;;;1.90;1.80;;;;;;;22.52;92.05;97284.78;4963372;28;20262;-66
2021/09/19 01:18:59;;;;;;;1.90;1.80;;;;;;;22.53;92.06;97283.09;4953279;28;20366;-68
2021/09/19 01:21:26;;;;;;;1.70;1.60;;;;;;;22.53;92.03;97277.97;4962565;28;20334;-68
2021/09/19 01:24:02;;;;;;;2.00;1.90;;;;;;;22.48;92.01;97272.72;4962225;28;20632;-66
2021/09/19 01:26:29;;;;;;;2.00;1.90;;;;;;;22.53;92.01;97288.22;4958622;28;20282;-66
2021/09/19 01:28:56;;;;;;;1.77;1.67;;;;;;;22.53;92.06;97278.81;4961008;28;20716;-66
2021/09/19 01:31:22;;;;;;;2.03;1.93;;;;;;;22.53;92.02;97285.66;4968278;28;20326;-69
2021/09/19 01:33:49;;;;;;;1.80;1.70;;;;;;;22.54;92.09;97279.69;4961500;28;20212;-66
2021/09/19 01:36:16;;;;;;;1.87;1.77;;;;;;;22.53;92.04;97275.41;4963569;28;20684;-66
2021/09/19 01:38:42;;;;;;;1.83;1.73;;;;;;;22.53;92.10;97280.53;4959377;28;20291;-66
2021/09/19 01:41:09;;;;;;;1.90;1.80;;;;;;;22.52;92.12;97277.09;4962297;28;20773;-64
2021/09/19 01:43:36;;;;;;;2.00;1.90;;;;;;;22.53;92.00;97273.69;4960409;28;20298;-66
2021/09/19 01:46:03;;;;;;;1.87;1.77;;;;;;;22.52;92.11;97266.84;4965510;28;20320;-66
2021/09/19 01:48:35;;;;;;;1.70;1.60;;;;;;;22.52;92.02;97269.41;4965823;28;20216;-66
2021/09/19 01:51:03;;;;;;;1.80;1.70;;;;;;;22.52;91.97;97266.84;4965757;28;20335;-66
2021/09/19 01:53:29;;;;;;;1.90;1.80;;;;;;;22.52;91.98;97263.41;4962991;28;20261;-67
2021/09/19 01:55:56;;;;;;;1.90;1.80;;;;;;;22.52;91.92;97258.28;4960836;28;20239;-67
2021/09/19 01:58:23;;;;;;;1.77;1.67;;;;;;;22.52;91.90;97260.84;4953588;28;20287;-67
2021/09/19 02:00:54;;;;;;;2.07;1.97;;;;;;;22.52;91.92;97256.59;4969364;28;20652;-66
2021/09/19 02:03:21;;;;;;;1.90;1.80;;;;;;;22.51;92.00;97252.31;4958842;28;20259;-66
2021/09/19 02:05:48;;;;;;;1.80;1.70;;;;;;;22.47;92.00;97245.34;4957408;28;20323;-66
2021/09/19 02:08:14;;;;;;;1.83;1.73;;;;;;;22.51;91.99;97257.44;4960743;28;20660;-67
2021/09/19 02:10:41;;;;;;;1.90;1.80;;;;;;;22.50;91.55;97255.69;4966443;28;20262;-66
2021/09/19 02:13:07;;;;;;;1.83;1.73;;;;;;;22.51;91.96;97254.00;4960602;28;20262;-66
2021/09/19 02:15:34;;;;;;;1.90;1.80;;;;;;;22.50;92.08;97249.69;4962240;28;20211;-63
2021/09/19 02:18:01;;;;;;;1.80;1.70;;;;;;;22.50;91.81;97248.00;4967129;28;20208;-66
2021/09/19 02:20:27;;;;;;;1.77;1.67;;;;;;;22.50;91.92;97242.00;4962172;28;20270;-67
2021/09/19 02:22:54;;;;;;;2.10;2.00;;;;;;;22.50;92.25;97242.00;4954736;28;20238;-66
2021/09/19 02:25:20;;;;;;;2.37;1.87;;;;;;;22.50;91.90;97234.31;4960417;28;20316;-66
2021/09/19 02:27:47;;;;;;;1.70;1.60;;;;;;;22.50;92.09;97229.22;4964563;28;20250;-66
2021/09/19 02:30:14;;;;;;;1.97;1.87;;;;;;;22.50;92.14;97232.66;4955094;28;20511;-66
2021/09/19 02:32:41;;;;;;;1.80;1.70;;;;;;;22.50;91.93;97224.97;4958699;28;20236;-65
2021/09/19 02:35:08;;;;;;;1.90;1.80;;;;;;;22.50;91.89;97221.53;4956034;28;20318;-66
2021/09/19 02:37:36;;;;;;;1.87;1.77;;;;;;;22.49;91.92;97222.34;4966571;28;20611;-66
2021/09/19 02:40:04;;;;;;;1.90;1.80;;;;;;;22.49;91.89;97215.53;4964396;28;20292;-66
2021/09/19 02:42:31;;;;;;;1.80;1.70;;;;;;;22.50;91.80;97211.28;4958237;28;20291;-67
2021/09/19 02:44:57;;;;;;;1.90;1.80;;;;;;;22.51;91.97;97215.59;4960987;28;20307;-68
2021/09/19 02:47:24;;;;;;;1.80;1.70;;;;;;;22.50;91.92;97212.16;4962132;28;20208;-67
2021/09/19 02:49:50;;;;;;;1.90;1.80;;;;;;;22.50;92.02;97203.59;4959329;28;20720;-66
2021/09/19 02:52:17;;;;;;;1.97;1.87;;;;;;;22.50;91.76;97199.34;4962080;28;20277;-67
2021/09/19 02:54:43;;;;;;;2.00;1.90;;;;;;;22.50;91.91;97195.91;4961197;28;20287;-66
2021/09/19 02:57:10;;;;;;;1.90;1.80;;;;;;;22.50;91.91;97196.78;4957822;28;20649;-65
2021/09/19 02:59:37;;;;;;;2.00;1.90;;;;;;;22.50;91.94;97193.34;4955480;28;20544;-66
2021/09/19 03:02:06;;;;;;;1.70;1.60;;;;;;;22.50;91.85;97189.13;4990848;23;20227;-65
2021/09/19 03:04:33;;;;;;;1.70;1.60;;;;;;;22.51;91.79;97195.09;4977241;28;20230;-66
2021/09/19 03:07:00;;;;;;;1.77;1.67;;;;;;;22.51;91.58;97190.88;4987730;28;20238;-68
2021/09/19 03:09:26;;;;;;;1.90;1.80;;;;;;;22.52;91.33;97194.25;4989304;28;20210;-66
2021/09/19 03:11:53;;;;;;;1.83;1.73;;;;;;;22.46;91.72;97182.19;4986046;28;20660;-66
2021/09/19 03:14:19;;;;;;;1.77;1.67;;;;;;;22.51;91.22;97187.41;4975601;28;20242;-66
2021/09/19 03:16:46;;;;;;;1.70;1.60;;;;;;;22.51;91.42;97192.53;4974606;28;20239;-66
2021/09/19 03:19:13;;;;;;;1.80;1.70;;;;;;;22.46;91.64;97168.50;4981183;28;20307;-66
2021/09/19 03:21:39;;;;;;;1.90;1.80;;;;;;;22.51;91.80;97177.19;4979796;28;20431;-66
2021/09/19 03:24:06;;;;;;;1.90;1.80;;;;;;;22.50;91.95;97171.19;4977743;28;20629;-66
2021/09/19 03:26:32;;;;;;;1.90;1.80;;;;;;;22.45;91.60;97161.66;4981071;28;20323;-66
2021/09/19 03:28:59;;;;;;;1.80;1.70;;;;;;;22.46;91.81;97161.69;4983159;28;20298;-66
2021/09/19 03:31:25;;;;;;;1.70;1.60;;;;;;;22.51;91.78;97172.94;4968190;28;20262;-67
2021/09/19 03:33:52;;;;;;;1.90;1.80;;;;;;;22.34;91.60;97137.53;4974304;28;20211;-66
2021/09/19 03:36:19;;;;;;;1.70;1.60;;;;;;;22.31;91.47;97137.47;4972463;28;20703;-66
2021/09/19 03:38:45;;;;;;;2.07;1.97;;;;;;;22.51;91.63;97159.25;4971290;28;20235;-66
2021/09/19 03:41:14;;;;;;;1.80;1.70;;;;;;;22.51;91.99;97156.69;4963119;28;20662;-63
2021/09/19 03:43:41;;;;;;;1.80;1.70;;;;;;;22.24;91.54;97112.59;4966263;28;20261;-67
2021/09/19 03:46:07;;;;;;;1.80;1.70;;;;;;;22.49;91.55;97150.63;4973539;28;20219;-66
2021/09/19 03:48:34;;;;;;;1.70;1.60;;;;;;;22.45;91.51;97139.50;4979827;28;20215;-66
2021/09/19 03:51:02;;;;;;;2.00;1.90;;;;;;;22.51;91.69;97155.00;4977100;28;20261;-66
2021/09/19 03:53:28;;;;;;;1.80;1.70;;;;;;;22.51;91.39;97149.88;4986032;28;20253;-64
2021/09/19 03:55:55;;;;;;;1.97;1.87;;;;;;;22.35;91.56;97121.34;4973490;28;20238;-66
2021/09/19 03:58:22;;;;;;;1.60;1.50;;;;;;;22.50;91.49;97147.25;4971498;28;20238;-65
2021/09/19 04:00:49;;;;;;;1.63;1.53;;;;;;;22.46;91.60;97141.19;4987350;28;20222;-66
2021/09/19 04:03:16;;;;;;;1.70;1.60;;;;;;;22.50;91.62;97150.69;4979493;28;20581;-66
2021/09/19 04:05:42;;;;;;;2.00;1.80;;;;;;;22.50;91.70;97147.25;4979680;28;20233;-66
2021/09/19 04:08:13;;;;;;;1.90;1.80;;;;;;;22.50;91.36;97147.25;4978497;28;20250;-65
2021/09/19 04:10:40;;;;;;;1.77;1.67;;;;;;;22.43;91.58;97136.03;4980980;28;20281;-67
2021/09/19 04:13:06;;;;;;;1.77;1.67;;;;;;;22.48;91.76;97147.22;4978747;28;20291;-66
2021/09/19 04:15:33;;;;;;;1.63;1.53;;;;;;;22.47;91.67;97145.47;4978442;28;20265;-67
2021/09/19 04:17:59;;;;;;;2.07;1.53;;;;;;;22.48;91.61;97144.66;4980560;28;20573;-66
2021/09/19 04:20:26;;;;;;;1.90;1.80;;;;;;;22.44;91.72;97129.22;4978819;28;20740;-66
2021/09/19 04:22:53;;;;;;;1.77;1.67;;;;;;;22.43;91.74;97128.34;4978736;28;20243;-65
2021/09/19 04:25:19;;;;;;;2.00;1.90;;;;;;;22.49;91.67;97138.72;4973011;28;20281;-66
2021/09/19 04:27:46;;;;;;;1.70;1.60;;;;;;;22.49;91.73;97132.72;4975353;28;20230;-66
2021/09/19 04:30:12;;;;;;;2.20;1.93;;;;;;;22.47;91.62;97130.13;4985384;28;20333;-67
2021/09/19 04:32:42;;;;;;;1.60;1.50;;;;;;;22.48;91.55;97134.44;4984089;28;20234;-67
2021/09/19 04:35:09;;;;;;;1.73;1.63;;;;;;;22.44;91.45;97126.66;4973611;28;20200;-66
2021/09/19 04:37:35;;;;;;;1.80;1.70;;;;;;;22.31;91.56;97104.19;4976661;28;20586;-67
2021/09/19 04:40:05;;;;;;;1.80;1.70;;;;;;;22.31;91.59;97107.63;4973240;28;20204;-66
2021/09/19 04:42:31;;;;;;;1.90;1.80;;;;;;;22.48;91.62;97137.00;4977634;28;20227;-66
2021/09/19 04:44:58;;;;;;;1.80;1.70;;;;;;;22.48;91.58;97138.66;4984286;28;20258;-67
2021/09/19 04:47:25;;;;;;;1.80;1.70;;;;;;;22.46;91.66;97132.66;4975262;28;20293;-66
2021/09/19 04:49:51;;;;;;;1.77;1.67;;;;;;;22.46;91.59;97140.31;4985516;28;20748;-67
2021/09/19 04:52:18;;;;;;;1.80;1.70;;;;;;;22.49;91.65;97150.63;4978639;28;20261;-66
2021/09/19 04:54:44;;;;;;;1.80;1.70;;;;;;;22.43;91.61;97148.81;4981248;28;20247;-66
2021/09/19 04:57:11;;;;;;;1.93;1.83;;;;;;;22.43;91.83;97151.38;4977331;28;20651;-67
2021/09/19 04:59:38;;;;;;;1.70;1.60;;;;;;;22.48;91.63;97157.47;4979198;28;20235;-66
2021/09/19 05:02:04;;;;;;;2.00;1.90;;;;;;;22.48;91.54;97151.47;4985272;28;20747;-66
2021/09/19 05:04:32;;;;;;;1.60;1.50;;;;;;;22.37;91.54;97146.16;4977843;28;20677;-66
2021/09/19 05:06:58;;;;;;;1.70;1.60;;;;;;;22.44;91.45;97154.81;4985980;28;20719;-67
2021/09/19 05:09:25;;;;;;;1.77;1.67;;;;;;;22.48;91.73;97166.84;4973223;28;20242;-64
2021/09/19 05:11:52;;;;;;;1.97;1.87;;;;;;;22.48;91.45;97170.28;4981678;28;20309;-66
2021/09/19 05:14:18;;;;;;;1.87;1.77;;;;;;;22.41;91.39;97159.88;4976677;28;20282;-66
2021/09/19 05:16:45;;;;;;;1.90;1.80;;;;;;;22.49;91.44;97176.25;4979868;28;20287;-66
2021/09/19 05:19:11;;;;;;;1.60;1.50;;;;;;;22.49;91.51;97176.25;4985514;28;20258;-65
2021/09/19 05:21:38;;;;;;;1.70;1.60;;;;;;;22.50;91.72;97178.00;4979371;28;20341;-67
2021/09/19 05:24:05;;;;;;;2.03;1.70;;;;;;;22.49;91.18;97182.25;4986749;28;20282;-63
2021/09/19 05:26:31;;;;;;;1.80;1.70;;;;;;;22.45;91.55;97189.81;4967174;28;20658;-63
2021/09/19 05:28:58;;;;;;;1.80;1.70;;;;;;;22.44;91.51;97188.94;4974612;28;20250;-66
2021/09/19 05:31:24;;;;;;;1.80;1.70;;;;;;;22.49;91.39;97210.41;4982992;28;20683;-66
2021/09/19 05:33:51;;;;;;;2.00;1.90;;;;;;;22.50;91.58;97213.84;4963932;28;20302;-68
2021/09/19 05:36:17;;;;;;;1.70;1.60;;;;;;;22.49;91.44;97209.53;4982350;28;20199;-63
2021/09/19 05:38:44;;;;;;;1.70;1.60;;;;;;;22.39;91.43;97197.38;4976959;28;20242;-66
2021/09/19 05:41:11;;;;;;;1.77;1.67;;;;;;;22.50;91.32;97216.41;4972228;28;20262;-66
2021/09/19 05:43:37;;;;;;;1.70;1.60;;;;;;;22.45;91.22;97206.06;4985425;28;20238;-67
2021/09/19 05:46:04;;;;;;;1.50;1.40;;;;;;;22.44;91.20;97203.47;4979420;28;20734;-66
2021/09/19 05:48:31;;;;;;;1.67;1.57;;;;;;;22.49;91.07;97210.41;4953855;28;20247;-66
2021/09/19 05:50:57;;;;;;;1.60;1.50;;;;;;;22.50;91.33;97216.41;4979943;28;20382;-66
2021/09/19 05:53:24;;;;;;;1.73;1.63;;;;;;;22.49;91.27;97214.66;4982707;28;20211;-66
2021/09/19 05:55:50;;;;;;;1.60;1.50;;;;;;;22.49;91.38;97210.41;4975722;28;20243;-67
2021/09/19 05:58:17;;;;;;;1.80;1.70;;;;;;;22.49;91.31;97214.66;4980130;28;20286;-66
2021/09/19 06:00:43;;;;;;;1.47;1.37;;;;;;;22.48;91.32;97218.94;4981647;28;20234;-66
2021/09/19 06:03:10;;;;;;;1.40;1.30;;;;;;;22.49;91.44;97217.22;4979634;28;20286;-66
2021/09/19 06:05:37;;;;;;;3.60;1.63;;;;;;;22.46;91.39;97210.34;4982133;28;20700;-66
2021/09/19 06:08:04;;;;;;;1.80;1.70;;;;;;;22.35;91.26;97180.25;4980031;28;20258;-64
2021/09/19 06:10:31;;;;;;;1.50;1.40;;;;;;;22.48;91.25;97212.94;4972760;28;20211;-63
2021/09/19 06:12:57;;;;;;;1.50;1.40;;;;;;;22.48;91.41;97215.50;4979371;28;20242;-64
2021/09/19 06:15:24;;;;;;;1.67;1.57;;;;;;;22.48;91.34;97216.38;4960137;28;20282;-66
2021/09/19 06:17:50;;;;;;;1.70;1.60;;;;;;;22.47;91.53;97209.50;4985848;28;20297;-66
2021/09/19 06:20:17;;;;;;;1.80;1.70;;;;;;;22.44;91.27;97206.03;4988787;28;20238;-66
2021/09/19 06:22:44;;;;;;;2.70;1.50;;;;;;;22.43;91.21;97211.97;4979871;28;20231;-67
2021/09/19 06:25:11;;;;;;;1.60;1.50;;;;;;;22.48;91.28;97218.06;4981927;28;20257;-66
2021/09/19 06:27:38;;;;;;;1.43;1.33;;;;;;;22.45;91.23;97208.63;4980512;28;20676;-65
2021/09/19 06:30:06;;;;;;;1.80;1.70;;;;;;;22.29;91.21;97173.28;4988168;28;20227;-67
2021/09/19 06:32:32;;;;;;;1.50;1.40;;;;;;;22.42;91.10;97203.44;4974781;28;20261;-69
2021/09/19 06:35:00;;;;;;;1.60;1.50;;;;;;;22.49;91.32;97206.97;4985184;28;20205;-66
2021/09/19 06:37:26;;;;;;;1.77;1.67;;;;;;;22.46;91.12;97204.34;4985321;28;20253;-66
2021/09/19 06:39:53;;;;;;;1.70;1.60;;;;;;;22.48;91.28;97210.38;4956898;28;20546;-66
2021/09/19 06:42:19;;;;;;;1.70;1.60;;;;;;;22.47;91.50;97209.50;4977626;28;21095;-66
2021/09/19 06:44:46;;;;;;;1.83;1.73;;;;;;;22.48;91.08;97197.56;4987138;28;20692;-66
2021/09/19 06:47:13;;;;;;;1.73;1.63;;;;;;;22.48;90.92;97200.13;4972982;28;20250;-63
2021/09/19 06:49:39;;;;;;;1.60;1.50;;;;;;;22.47;91.19;97204.38;4964567;28;20700;-65
2021/09/19 06:52:06;;;;;;;1.70;1.60;;;;;;;22.49;91.68;97204.41;4972811;28;20290;-67
2021/09/19 06:54:32;;;;;;;1.90;1.80;;;;;;;22.48;91.22;97197.56;4980591;28;20294;-66
2021/09/19 06:56:59;;;;;;;1.70;1.60;;;;;;;22.48;91.29;97197.56;4986851;28;20238;-65
2021/09/19 06:59:25;;;;;;;1.60;1.50;;;;;;;22.46;91.06;97192.41;4977926;28;20234;-65
2021/09/19 07:01:52;;;;;;;1.70;1.60;;;;;;;22.49;91.59;97197.59;4980654;28;20322;-66
2021/09/19 07:04:19;;;;;;;1.60;1.50;;;;;;;22.46;90.95;97197.53;4977203;28;20512;-64
2021/09/19 07:06:46;;;;;;;1.60;1.50;;;;;;;22.42;91.19;97200.00;4980441;28;20230;-66
2021/09/19 07:09:13;;;;;;;1.80;1.70;;;;;;;22.42;91.18;97197.44;4970118;28;20555;-65
2021/09/19 07:11:40;;;;;;;1.80;1.70;;;;;;;22.44;90.89;97198.34;4971648;28;20682;-66
2021/09/19 07:14:06;;;;;;;1.80;1.70;;;;;;;22.49;91.00;97201.84;4983626;28;20306;-66
2021/09/19 07:16:33;;;;;;;1.70;1.60;;;;;;;22.46;90.84;97194.09;4961918;28;20203;-67
2021/09/19 07:18:59;;;;;;;1.70;1.60;;;;;;;22.30;90.94;97167.34;4977731;28;20231;-66
2021/09/19 07:21:26;;;;;;;1.80;1.70;;;;;;;22.49;90.92;97196.72;4970367;28;20253;-66
2021/09/19 07:23:53;;;;;;;1.70;1.60;;;;;;;22.49;91.08;97192.47;4977671;28;20680;-65
2021/09/19 07:26:19;;;;;;;1.70;1.60;;;;;;;22.47;90.67;97185.63;4972419;28;20702;-66
2021/09/19 07:28:46;;;;;;;1.80;1.70;;;;;;;22.50;91.03;97201.03;4984615;28;20293;-66
2021/09/19 07:31:13;;;;;;;1.60;1.50;;;;;;;22.50;90.97;97195.91;4987502;28;20767;-66
2021/09/19 07:33:40;;;;;;;1.70;1.60;;;;;;;22.49;91.08;97196.72;4984842;28;20205;-66
2021/09/19 07:36:07;;;;;;;1.50;1.40;;;;;;;22.48;91.09;97193.31;4985502;28;20282;-67
2021/09/19 07:38:34;;;;;;;1.73;1.63;;;;;;;22.47;90.85;97190.72;4986153;28;20234;-66
2021/09/19 07:41:00;;;;;;;1.60;1.50;;;;;;;22.45;90.90;97182.16;4985164;28;20670;-67
2021/09/19 07:43:27;;;;;;;1.70;1.60;;;;;;;22.48;90.85;97184.78;4967734;28;20246;-66
2021/09/19 07:45:54;;;;;;;1.70;1.60;;;;;;;22.46;91.03;97186.41;4975392;28;20255;-66
2021/09/19 07:48:21;;;;;;;1.63;1.53;;;;;;;22.49;90.93;97184.78;4984618;28;20210;-67
2021/09/19 07:50:48;;;;;;;1.60;1.50;;;;;;;22.44;90.86;97177.88;4974914;28;20246;-66
2021/09/19 07:53:15;;;;;;;1.70;1.60;;;;;;;22.49;91.01;97186.47;4982768;28;20640;-65
2021/09/19 07:55:41;;;;;;;1.90;1.80;;;;;;;22.49;90.88;97181.38;4979252;28;20253;-68
2021/09/19 07:58:08;;;;;;;1.50;1.40;;;;;;;22.44;90.73;97178.72;4970462;28;20298;-66
2021/09/19 08:00:34;;;;;;;1.83;1.73;;;;;;;22.17;90.90;97134.63;4972696;28;20256;-66
2021/09/19 08:03:01;;;;;;;1.80;1.70;;;;;;;22.47;90.71;97177.94;4971183;28;20269;-66
2021/09/19 08:05:28;;;;;;;1.60;1.50;;;;;;;22.48;91.09;97183.09;4972043;28;20270;-66
2021/09/19 08:07:55;;;;;;;1.70;1.60;;;;;;;22.47;90.63;97183.91;4974163;28;20254;-66
2021/09/19 08:10:21;;;;;;;1.77;1.67;;;;;;;22.30;90.99;97151.09;4982945;28;20277;-66
2021/09/19 08:12:48;;;;;;;1.70;1.60;;;;;;;22.47;90.91;97189.00;4986267;28;20265;-66
2021/09/19 08:15:16;;;;;;;1.57;1.47;;;;;;;22.46;90.89;97182.19;4976942;28;20648;-65
2021/09/19 08:17:43;;;;;;;1.70;1.60;;;;;;;22.44;91.15;97178.72;4971997;28;20235;-66
2021/09/19 08:20:10;;;;;;;1.63;1.53;;;;;;;22.41;90.97;97176.09;4976332;28;20298;-66
2021/09/19 08:22:37;;;;;;;1.53;1.43;;;;;;;22.42;91.19;97179.53;4984136;28;20232;-65
2021/09/19 08:25:06;;;;;;;2.37;1.40;;;;;;;22.46;91.06;97188.97;4972446;28;20203;-64
2021/09/19 08:27:34;;;;;;;1.80;1.70;;;;;;;22.40;91.04;97182.06;4988728;28;20223;-67
2021/09/19 08:30:01;;;;;;;1.90;1.80;;;;;;;22.46;90.99;97188.97;4991798;28;20533;-67
2021/09/19 08:32:28;;;;;;;1.57;1.47;;;;;;;22.46;91.02;97188.97;4989098;28;20273;-65
2021/09/19 08:34:54;;;;;;;1.70;1.60;;;;;;;22.46;90.75;97191.53;4989198;28;20269;-66
2021/09/19 08:37:21;;;;;;;1.60;1.50;;;;;;;22.41;90.78;97178.66;4983733;28;20882;-67
2021/09/19 08:39:48;;;;;;;1.70;1.60;;;;;;;22.46;90.62;97186.41;4981601;28;20277;-66
2021/09/19 08:42:14;;;;;;;1.90;1.80;;;;;;;22.42;90.81;97179.53;4979338;28;20266;-66
2021/09/19 08:44:41;;;;;;;1.80;1.70;;;;;;;22.46;90.85;97184.75;4984556;28;20295;-66
2021/09/19 08:47:08;;;;;;;1.80;1.70;;;;;;;22.33;90.95;97157.16;4975126;28;20237;-66
2021/09/19 08:49:34;;;;;;;1.77;1.67;;;;;;;22.23;91.04;97136.47;4975848;28;20207;-66
2021/09/19 08:52:01;;;;;;;1.70;1.60;;;;;;;22.47;90.89;97186.44;4976332;28;20225;-66
2021/09/19 08:54:32;;;;;;;1.70;1.60;;;;;;;22.48;90.88;97187.31;4983199;28;20210;-66
2021/09/19 08:56:59;;;;;;;1.80;1.70;;;;;;;22.46;90.79;97181.31;4986748;28;20199;-66
2021/09/19 08:59:45;;;;;;;1.60;1.50;;;;;;;22.23;90.84;97144.16;4975806;28;20298;-66
2021/09/19 09:02:14;;;;;;;1.90;1.80;;;;;;;22.10;90.78;97114.00;4998445;23;20265;-71
2021/09/19 09:04:42;;;;;;;1.70;1.60;;;;;;;22.47;90.93;97175.38;4976487;28;20233;-71
2021/09/19 09:07:09;;;;;;;1.70;1.60;;;;;;;22.45;90.74;97175.34;4985071;28;20317;-71
2021/09/19 09:09:35;;;;;;;1.80;1.70;;;;;;;22.43;90.70;97173.56;4993810;28;20294;-70
2021/09/19 09:12:03;;;;;;;1.80;1.70;;;;;;;22.47;90.79;97172.81;4994801;28;20635;-71
2021/09/19 09:14:38;;;;;;;1.80;1.70;;;;;;;22.48;90.68;97177.09;4999552;28;20245;-70
2021/09/19 09:17:18;;;;;;;1.90;1.80;;;;;;;22.46;90.67;97174.50;4989418;28;20198;-70
2021/09/19 09:19:47;;;;;;;1.70;1.60;;;;;;;22.48;90.68;97171.97;4996123;28;20772;-70
2021/09/19 09:22:14;;;;;;;1.60;1.50;;;;;;;22.48;90.64;97169.41;4977652;28;20249;-70
2021/09/19 09:24:42;;;;;;;1.73;1.63;;;;;;;22.47;90.69;97171.09;4994796;28;20843;-70
2021/09/19 09:27:23;;;;;;;1.80;1.70;;;;;;;22.17;90.76;97119.28;4973729;28;20220;-70
2021/09/19 09:30:09;;;;;;;1.60;1.50;;;;;;;22.40;90.63;97150.44;4993922;28;20572;-70
2021/09/19 09:32:53;;;;;;;1.80;1.70;;;;;;;22.39;90.51;97149.59;4991035;28;20284;-71
2021/09/19 09:35:24;;;;;;;1.70;1.60;;;;;;;22.47;90.79;97158.28;4992442;28;20301;-70
2021/09/19 09:37:51;;;;;;;2.00;1.90;;;;;;;22.47;90.54;97160.00;5000450;28;20274;-70
2021/09/19 09:40:19;;;;;;;1.40;1.30;;;;;;;22.39;90.82;97149.59;4979777;28;20670;-71
2021/09/19 09:43:09;;;;;;;1.80;1.70;;;;;;;22.36;90.67;97141.00;4978603;28;20250;-71
2021/09/19 09:45:37;;;;;;;1.87;1.77;;;;;;;22.47;90.69;97163.41;4978041;28;20250;-69
2021/09/19 09:48:23;;;;;;;1.70;1.60;;;;;;;22.48;90.62;97159.16;4994918;28;20227;-71
2021/09/19 09:50:51;;;;;;;1.90;1.80;;;;;;;22.40;90.71;97155.56;4973827;28;20226;-70
2021/09/19 09:53:21;;;;;;;1.60;1.50;;;;;;;22.39;90.49;97157.28;4974197;28;20251;-70
2021/09/19 09:55:48;;;;;;;1.87;1.77;;;;;;;22.30;90.74;97139.19;4994276;28;20282;-70
2021/09/19 09:58:18;;;;;;;1.70;1.60;;;;;;;22.40;90.65;97159.00;4993095;28;20267;-70
2021/09/19 10:00:53;;;;;;;1.70;1.60;;;;;;;22.47;90.69;97165.97;4977136;28;20242;-70
2021/09/19 10:03:20;;;;;;;1.60;1.50;;;;;;;22.46;90.56;97158.25;4994812;28;20359;-70
2021/09/19 10:05:47;;;;;;;1.70;1.60;;;;;;;22.40;90.67;97145.34;4994860;28;20230;-70
2021/09/19 10:08:13;;;;;;;1.73;1.63;;;;;;;22.46;90.69;97159.13;4975715;28;20222;-71
2021/09/19 10:10:43;;;;;;;1.70;1.60;;;;;;;22.35;90.47;97139.28;4998679;28;20501;-70
2021/09/19 10:13:11;;;;;;;1.70;1.60;;;;;;;22.37;90.49;97142.72;4970598;28;20530;-70
2021/09/19 10:15:38;;;;;;;1.60;1.50;;;;;;;22.27;90.63;97125.44;4989755;28;20756;-70
2021/09/19 10:18:04;;;;;;;1.77;1.67;;;;;;;22.40;90.69;97156.44;4993062;28;20204;-70
2021/09/19 10:20:45;;;;;;;1.70;1.60;;;;;;;22.35;90.70;97147.81;4973116;28;20242;-70
2021/09/19 10:23:15;;;;;;;1.60;1.50;;;;;;;22.32;90.74;97147.75;4980759;28;20265;-71
2021/09/19 10:25:53;;;;;;;1.70;1.60;;;;;;;22.46;90.57;97168.50;4991085;28;20261;-70
2021/09/19 10:28:30;;;;;;;1.60;1.50;;;;;;;22.35;90.55;97155.47;4990569;28;20230;-69
2021/09/19 10:31:09;;;;;;;1.57;1.47;;;;;;;22.46;90.62;97173.63;5000134;28;20297;-69
2021/09/19 10:34:00;;;;;;;1.60;1.50;;;;;;;21.54;90.39;97020.69;4992862;28;20207;-69
2021/09/19 10:36:31;;;;;;;1.70;1.60;;;;;;;22.38;90.69;97149.59;4984266;28;20289;-71
2021/09/19 10:39:09;;;;;;;1.60;1.50;;;;;;;22.45;90.63;97161.66;4993658;28;20260;-70
2021/09/19 10:41:36;;;;;;;1.70;1.60;;;;;;;22.18;90.27;97117.59;4994596;28;20286;-70
2021/09/19 10:44:03;;;;;;;1.60;1.50;;;;;;;22.45;90.67;97161.66;4987045;28;20249;-70
2021/09/19 10:46:35;;;;;;;1.77;1.67;;;;;;;22.45;90.71;97165.09;4973120;28;20282;-71
2021/09/19 10:49:18;;;;;;;2.00;1.90;;;;;;;22.15;90.55;97105.59;5002055;28;20207;-71
2021/09/19 10:52:09;;;;;;;1.70;1.60;;;;;;;22.45;90.60;97153.97;4976924;28;20231;-71
2021/09/19 10:54:41;;;;;;;1.60;1.50;;;;;;;22.46;90.65;97153.13;4999768;28;20286;-70
2021/09/19 10:57:41;;;;;;;1.90;1.80;;;;;;;22.46;90.61;97158.25;4990787;28;20631;-70
2021/09/19 11:00:07;;;;;;;1.70;1.60;;;;;;;22.45;90.67;97157.41;4984249;28;20272;-70
2021/09/19 11:02:35;;;;;;;1.80;1.70;;;;;;;22.37;90.68;97135.91;4993507;28;20234;-71
2021/09/19 11:05:32;;;;;;;1.80;1.70;;;;;;;22.46;90.73;97160.81;4983994;28;20210;-70
2021/09/19 11:08:07;;;;;;;1.60;1.50;;;;;;;22.46;90.72;97148.88;4983525;28;20262;-70
2021/09/19 11:10:46;;;;;;;1.80;1.70;;;;;;;22.47;90.62;97152.31;5004438;28;20269;-70
2021/09/19 11:13:29;;;;;;;1.80;1.70;;;;;;;22.44;90.60;97139.47;4985347;28;20222;-70
2021/09/19 11:16:01;;;;;;;1.90;1.80;;;;;;;22.45;90.67;97144.63;4994122;28;20202;-70
2021/09/19 11:18:34;;;;;;;1.83;1.73;;;;;;;22.45;90.67;97144.63;4993256;28;20214;-71
2021/09/19 11:21:10;;;;;;;1.67;1.57;;;;;;;22.45;90.52;97144.63;4993531;28;20209;-70
2021/09/19 11:23:47;;;;;;;1.63;1.53;;;;;;;22.24;90.47;97113.47;4998647;28;20203;-71
2021/09/19 11:26:35;;;;;;;1.70;1.60;;;;;;;22.38;90.77;97129.94;4978073;28;20202;-70
2021/09/19 11:29:04;;;;;;;1.50;1.40;;;;;;;22.46;90.56;97143.75;4983082;28;20211;-70
2021/09/19 11:31:31;;;;;;;1.70;1.60;;;;;;;22.14;90.60;97088.50;5000127;28;20225;-71
2021/09/19 11:34:03;;;;;;;1.80;1.70;;;;;;;22.46;90.57;97135.22;4983775;28;20235;-70
2021/09/19 11:36:31;;;;;;;1.77;1.67;;;;;;;22.46;90.55;97137.78;5005666;28;20244;-70
2021/09/19 11:38:58;;;;;;;1.80;1.70;;;;;;;22.34;90.70;97110.25;4998643;28;20260;-71